Time;durP1;ratioP1;P1;durP2;ratioP2;P2;SDS_P1;SDS_P2;PMS_P1;PMS_P2;Temp;Humidity;BMP_temperature;BMP_pressure;BME280_temperature;BME280_humidity;BME280_pressure;Samples;Min_cycle;Max_cycle;Signal;HPM_P1;HPM_P2
2023/09/15 00:00:43;;;;;;;7.15;1.65;;;;;;;9.44;100.00;101676.69;5027050;28;20414;-86
2023/09/15 00:03:16;;;;;;;4.30;1.67;;;;;;;9.42;100.00;101676.94;5026453;28;20422;-86
2023/09/15 00:05:46;;;;;;;3.65;1.73;;;;;;;9.45;100.00;101670.19;5029330;28;20427;-85
2023/09/15 00:08:19;;;;;;;4.07;1.63;;;;;;;9.45;100.00;101672.91;5024043;28;21269;-86
2023/09/15 00:10:48;;;;;;;6.38;1.75;;;;;;;9.43;100.00;101677.75;5030148;28;20415;-86
2023/09/15 00:13:17;;;;;;;5.43;1.77;;;;;;;9.41;100.00;101680.72;5026773;28;20469;-86
2023/09/15 00:15:51;;;;;;;6.60;1.93;;;;;;;9.38;100.00;101674.94;5025882;28;20425;-86
2023/09/15 00:18:25;;;;;;;6.97;1.70;;;;;;;9.35;100.00;101676.28;5028402;28;20423;-86
2023/09/15 00:20:53;;;;;;;5.93;1.80;;;;;;;9.26;100.00;101673.13;5028361;28;20446;-86
2023/09/15 00:23:27;;;;;;;6.93;1.60;;;;;;;9.25;100.00;101676.91;5028244;28;20427;-86
2023/09/15 00:26:02;;;;;;;4.95;1.77;;;;;;;9.27;100.00;101685.66;5026196;28;20452;-86
2023/09/15 00:28:37;;;;;;;6.40;1.80;;;;;;;9.26;100.00;101673.13;5027862;28;20423;-86
2023/09/15 00:31:10;;;;;;;4.33;1.90;;;;;;;9.32;100.00;101683.03;5025226;28;20431;-86
2023/09/15 00:33:44;;;;;;;3.92;1.85;;;;;;;9.31;100.00;101684.09;5028315;28;20431;-86
2023/09/15 00:36:17;;;;;;;12.70;2.20;;;;;;;9.30;100.00;101682.44;5027699;28;20431;-86
2023/09/15 00:38:45;;;;;;;6.55;2.15;;;;;;;9.33;100.00;101684.66;5027386;28;20957;-86
2023/09/15 00:41:18;;;;;;;7.55;1.80;;;;;;;9.35;100.00;101687.16;5028324;28;20423;-86
2023/09/15 00:43:48;;;;;;;4.47;1.80;;;;;;;9.32;100.00;101677.59;5028068;28;20807;-86
2023/09/15 00:46:17;;;;;;;5.25;1.95;;;;;;;9.30;100.00;101677.00;5041013;28;20849;-86
2023/09/15 00:48:51;;;;;;;7.35;2.10;;;;;;;9.31;100.00;101680.56;5027180;28;20411;-86
2023/09/15 00:51:21;;;;;;;5.80;2.17;;;;;;;9.29;100.00;101679.97;5045041;28;20415;-85
2023/09/15 00:53:55;;;;;;;4.28;1.90;;;;;;;9.23;100.00;101680.97;5044399;28;20446;-86
2023/09/15 00:56:24;;;;;;;5.38;1.90;;;;;;;9.25;100.00;101668.75;5027457;28;20423;-86
2023/09/15 00:59:00;;;;;;;5.45;2.00;;;;;;;9.23;100.00;101673.63;5027414;28;20427;-85
2023/09/15 01:01:34;;;;;;;4.60;1.80;;;;;;;9.19;100.00;101665.13;5041313;28;20423;-86
2023/09/15 01:04:04;;;;;;;3.95;1.90;;;;;;;9.14;100.00;101675.94;5025078;28;20422;-86
2023/09/15 01:06:36;;;;;;;3.58;1.73;;;;;;;9.12;100.00;101672.63;5025659;28;20426;-85
2023/09/15 01:09:08;;;;;;;4.32;2.00;;;;;;;9.12;100.00;101674.53;5025544;28;20450;-84
2023/09/15 01:11:41;;;;;;;5.37;1.90;;;;;;;9.13;100.00;101681.63;5032526;28;20434;-85
2023/09/15 01:14:11;;;;;;;4.50;1.88;;;;;;;9.10;100.00;101680.22;5027940;28;20434;-85
2023/09/15 01:16:47;;;;;;;3.85;2.00;;;;;;;9.11;100.00;101681.03;5029608;28;20427;-86
2023/09/15 01:19:40;;;;;;;4.25;1.90;;;;;;;9.07;100.00;101674.44;5031274;28;20437;-86
2023/09/15 01:22:45;;;;;;;5.10;1.73;;;;;;;9.04;100.00;101672.22;5045462;28;20454;-86
2023/09/15 01:25:44;;;;;;;5.95;2.03;;;;;;;8.98;100.00;101674.03;5005150;28;21169;-86
2023/09/15 01:28:30;;;;;;;6.18;2.28;;;;;;;9.01;100.00;101677.06;5031414;28;20430;-85
2023/09/15 01:31:01;;;;;;;5.20;2.17;;;;;;;8.99;100.00;101678.38;5031854;28;20425;-86
2023/09/15 01:33:36;;;;;;;6.10;2.10;;;;;;;8.97;100.00;101669.66;5031012;28;20423;-86
2023/09/15 01:36:05;;;;;;;5.20;2.30;;;;;;;9.01;100.00;101677.06;5048477;28;20417;-86
2023/09/15 01:38:34;;;;;;;6.88;2.28;;;;;;;8.96;100.00;101665.28;5046323;28;20454;-86
2023/09/15 01:41:07;;;;;;;3.58;1.90;;;;;;;8.92;100.00;101664.97;5030911;28;20426;-86
2023/09/15 01:43:36;;;;;;;5.75;2.20;;;;;;;8.92;100.00;101661.41;5030979;28;20431;-85
2023/09/15 01:46:07;;;;;;;6.97;2.30;;;;;;;8.94;100.00;101662.81;5031362;28;20430;-86
2023/09/15 01:48:41;;;;;;;5.32;2.45;;;;;;;9.04;100.00;101664.06;5032406;28;20437;-86
2023/09/15 01:51:10;;;;;;;5.85;2.10;;;;;;;8.97;100.00;101665.03;5030602;28;20427;-86
2023/09/15 01:53:44;;;;;;;6.60;2.45;;;;;;;8.98;100.00;101661.25;5032132;28;20457;-85
2023/09/15 01:56:13;;;;;;;5.32;2.45;;;;;;;8.95;100.00;101658.19;5035895;28;20441;-86
2023/09/15 01:58:41;;;;;;;5.45;2.40;;;;;;;8.91;100.00;101660.59;5043897;28;20426;-86
2023/09/15 02:01:16;;;;;;;5.40;2.40;;;;;;;8.95;100.00;101656.31;5046102;28;20430;-86
2023/09/15 02:03:49;;;;;;;5.75;2.58;;;;;;;8.95;100.00;101663.63;5031365;28;20426;-86
2023/09/15 02:06:17;;;;;;;7.32;2.50;;;;;;;8.98;100.00;101658.56;5036527;28;20915;-85
2023/09/15 02:08:46;;;;;;;5.27;2.40;;;;;;;8.91;100.00;101663.31;5030328;28;20419;-86
2023/09/15 02:11:22;;;;;;;4.30;2.20;;;;;;;8.90;100.00;101658.94;5031677;28;20418;-85
2023/09/15 02:13:55;;;;;;;6.82;2.55;;;;;;;8.88;100.00;101661.09;5029008;28;20911;-85
2023/09/15 02:16:29;;;;;;;5.93;2.28;;;;;;;8.88;100.00;101660.25;5031019;28;20426;-86
2023/09/15 02:19:03;;;;;;;5.10;2.38;;;;;;;8.92;100.00;101658.69;5030426;28;20431;-86
2023/09/15 02:21:32;;;;;;;5.88;2.17;;;;;;;8.85;100.00;101658.84;5026863;28;20439;-86
2023/09/15 02:24:01;;;;;;;6.00;2.50;;;;;;;8.86;100.00;101649.66;5031128;28;20407;-85
2023/09/15 02:26:34;;;;;;;7.90;2.55;;;;;;;8.90;100.00;101650.00;5030451;28;20430;-87
2023/09/15 02:29:07;;;;;;;6.45;2.60;;;;;;;8.85;100.00;101656.97;5027779;28;20427;-86
2023/09/15 02:31:38;;;;;;;6.50;2.30;;;;;;;8.82;100.00;101653.91;5029529;28;20446;-85
2023/09/15 02:34:13;;;;;;;5.70;2.50;;;;;;;8.81;100.00;101657.69;5045334;28;20744;-86
2023/09/15 02:36:46;;;;;;;5.32;2.65;;;;;;;8.79;100.00;101649.78;5029037;28;20430;-86
2023/09/15 02:39:20;;;;;;;5.93;2.80;;;;;;;8.78;100.00;101652.75;5046879;28;20431;-86
2023/09/15 02:41:48;;;;;;;7.47;2.78;;;;;;;8.75;100.00;101645.91;5030554;28;20438;-86
2023/09/15 02:44:22;;;;;;;5.07;2.63;;;;;;;8.82;100.00;101646.63;5030920;28;20747;-86
2023/09/15 02:46:57;;;;;;;5.40;2.63;;;;;;;8.77;100.00;101634.81;5029345;28;20442;-86
2023/09/15 02:49:30;;;;;;;5.18;2.97;;;;;;;8.80;100.00;101637.88;5030847;28;20423;-85
2023/09/15 02:52:05;;;;;;;6.80;3.13;;;;;;;8.78;100.00;101634.59;5028484;28;20427;-86
2023/09/15 02:54:39;;;;;;;5.57;2.70;;;;;;;8.74;100.00;101633.44;5029306;28;20450;-86
2023/09/15 02:57:07;;;;;;;6.47;2.80;;;;;;;8.75;100.00;101626.09;5029850;28;20419;-85
2023/09/15 02:59:40;;;;;;;7.47;2.90;;;;;;;8.75;100.00;101623.41;5036865;28;20431;-86
2023/09/15 03:02:12;;;;;;;6.95;2.90;;;;;;;8.77;100.00;101626.66;5027136;28;20427;-86
2023/09/15 03:04:46;;;;;;;6.55;2.92;;;;;;;8.72;100.00;101626.59;5042754;28;20431;-85
2023/09/15 03:07:20;;;;;;;7.63;3.10;;;;;;;8.72;100.00;101624.69;5042198;28;20988;-85
2023/09/15 03:09:48;;;;;;;6.72;2.97;;;;;;;8.73;100.00;101626.34;5028830;28;20422;-85
2023/09/15 03:12:16;;;;;;;6.00;2.75;;;;;;;8.74;100.00;101621.75;5045636;28;20510;-86
2023/09/15 03:14:52;;;;;;;6.90;2.75;;;;;;;8.72;100.00;101623.88;5029580;28;20422;-86
2023/09/15 03:17:22;;;;;;;7.03;3.27;;;;;;;8.70;100.00;101623.28;5028399;28;20467;-85
2023/09/15 03:19:55;;;;;;;5.80;3.00;;;;;;;8.69;100.00;101627.91;5027824;28;20779;-86
2023/09/15 03:22:23;;;;;;;7.68;3.38;;;;;;;8.66;100.00;101626.50;5028946;28;20430;-86
2023/09/15 03:24:56;;;;;;;6.17;3.33;;;;;;;8.70;100.00;101618.72;5028354;28;20513;-85
2023/09/15 03:27:26;;;;;;;6.75;3.40;;;;;;;8.64;100.00;101625.91;5027941;28;20427;-85
2023/09/15 03:30:00;;;;;;;6.07;2.90;;;;;;;8.63;100.00;101621.56;5030544;28;20895;-83
2023/09/15 03:32:35;;;;;;;7.50;3.03;;;;;;;8.60;100.00;101613.09;5041098;28;20446;-87
2023/09/15 03:35:09;;;;;;;6.60;3.28;;;;;;;8.60;100.00;101622.03;5029105;28;20779;-87
2023/09/15 03:37:43;;;;;;;6.93;3.10;;;;;;;8.59;100.00;101614.97;5029246;28;20423;-87
2023/09/15 03:40:17;;;;;;;7.85;3.40;;;;;;;8.60;100.00;101615.78;5029312;28;21237;-87
2023/09/15 03:42:52;;;;;;;8.25;3.70;;;;;;;8.55;100.00;101615.69;5030422;28;20427;-87
2023/09/15 03:45:20;;;;;;;6.60;3.38;;;;;;;8.58;100.00;101610.63;5029321;28;20423;-87
2023/09/15 03:47:55;;;;;;;9.80;3.45;;;;;;;8.53;100.00;101609.69;5030834;28;20419;-87
2023/09/15 03:50:23;;;;;;;8.50;3.60;;;;;;;8.49;100.00;101610.19;5029802;28;20415;-87
2023/09/15 03:52:52;;;;;;;7.70;3.63;;;;;;;8.53;100.00;101610.50;5028917;28;20941;-86
2023/09/15 03:55:26;;;;;;;9.82;3.80;;;;;;;8.58;100.00;101615.22;5044454;28;20450;-87
2023/09/15 03:58:00;;;;;;;8.18;3.65;;;;;;;8.56;100.00;101614.63;5045121;28;20419;-86
2023/09/15 04:00:33;;;;;;;8.43;4.18;;;;;;;8.56;100.00;101620.91;5028787;28;20435;-86
2023/09/15 04:03:08;;;;;;;8.80;3.90;;;;;;;8.56;100.00;101614.63;5028052;28;20918;-87
2023/09/15 04:05:41;;;;;;;8.63;3.72;;;;;;;8.45;100.00;101619.88;5029705;28;21005;-87
2023/09/15 04:08:09;;;;;;;7.35;4.00;;;;;;;8.52;100.00;101617.03;5032146;28;20419;-86
2023/09/15 04:10:38;;;;;;;6.78;3.78;;;;;;;8.45;100.00;101616.31;5033993;28;20423;-85
2023/09/15 04:13:06;;;;;;;7.97;3.80;;;;;;;8.43;100.00;101623.88;5028397;28;20423;-86
2023/09/15 04:15:40;;;;;;;7.50;3.70;;;;;;;8.44;100.00;101614.69;5029186;28;20971;-86
2023/09/15 04:18:09;;;;;;;7.57;3.72;;;;;;;8.37;100.00;101609.38;5028056;28;20433;-87
2023/09/15 04:20:42;;;;;;;8.05;3.90;;;;;;;8.37;100.00;101609.38;5029277;28;20431;-87
2023/09/15 04:23:12;;;;;;;8.30;3.80;;;;;;;8.32;100.00;101614.72;5041461;28;20419;-87
2023/09/15 04:25:42;;;;;;;9.07;4.10;;;;;;;8.39;100.00;101617.28;5033666;28;20953;-86
2023/09/15 04:28:15;;;;;;;7.67;3.97;;;;;;;8.34;100.00;101615.28;5028085;28;20427;-86
2023/09/15 04:30:45;;;;;;;9.63;4.25;;;;;;;8.31;100.00;101616.59;5028712;28;20423;-87
2023/09/15 04:33:20;;;;;;;7.82;4.15;;;;;;;8.32;100.00;101615.53;5026803;28;20926;-86
2023/09/15 04:35:53;;;;;;;9.40;4.05;;;;;;;8.36;100.00;101621.28;5026678;28;20434;-87
2023/09/15 04:38:22;;;;;;;7.60;4.10;;;;;;;8.36;100.00;101620.47;5030439;28;20787;-87
2023/09/15 04:40:55;;;;;;;9.45;4.07;;;;;;;8.37;100.00;101608.53;5028510;28;20426;-87
2023/09/15 04:43:23;;;;;;;8.20;3.70;;;;;;;8.33;100.00;101608.22;5028872;28;20429;-87
2023/09/15 04:45:51;;;;;;;7.57;4.10;;;;;;;8.33;100.00;101619.06;5029544;28;20445;-86
2023/09/15 04:48:26;;;;;;;11.40;4.53;;;;;;;8.34;100.00;101609.84;5028071;28;20411;-86
2023/09/15 04:50:55;;;;;;;9.90;4.40;;;;;;;8.34;100.00;101613.41;5031563;28;20411;-86
2023/09/15 04:53:30;;;;;;;9.47;4.30;;;;;;;8.36;100.00;101615.88;5028645;28;20431;-87
2023/09/15 04:55:58;;;;;;;8.80;4.47;;;;;;;8.33;100.00;101619.88;5029102;28;20422;-87
2023/09/15 04:58:32;;;;;;;10.45;4.68;;;;;;;8.24;100.00;101615.09;5028110;28;20425;-87
2023/09/15 05:01:07;;;;;;;9.15;4.50;;;;;;;8.30;100.00;101620.38;5024458;28;20787;-87
2023/09/15 05:03:37;;;;;;;7.57;4.43;;;;;;;8.29;100.00;101618.72;5025555;28;20420;-86
2023/09/15 05:06:08;;;;;;;8.15;4.53;;;;;;;8.32;100.00;101622.84;5023748;28;20434;-86
2023/09/15 05:08:36;;;;;;;10.50;4.65;;;;;;;8.34;100.00;101623.41;5022770;28;20428;-86
2023/09/15 05:11:09;;;;;;;8.23;4.70;;;;;;;8.34;100.00;101620.69;5026105;28;20431;-86
2023/09/15 05:13:38;;;;;;;8.57;4.40;;;;;;;8.34;100.00;101626.97;5028002;28;20446;-87
2023/09/15 05:16:08;;;;;;;8.48;4.60;;;;;;;8.38;100.00;101631.91;5025475;28;20514;-86
2023/09/15 05:18:38;;;;;;;9.55;4.60;;;;;;;8.41;100.00;101629.53;5025764;28;20640;-87
2023/09/15 05:21:11;;;;;;;8.43;4.70;;;;;;;8.41;100.00;101634.97;5029654;28;20491;-87
2023/09/15 05:23:40;;;;;;;8.70;4.72;;;;;;;8.44;100.00;101631.75;5026290;28;20422;-87
2023/09/15 05:26:14;;;;;;;9.60;5.00;;;;;;;8.53;100.00;101631.41;5024506;28;20799;-87
2023/09/15 05:28:47;;;;;;;13.07;4.80;;;;;;;8.57;100.00;101632.56;5030005;28;20419;-86
2023/09/15 05:31:17;;;;;;;10.27;4.80;;;;;;;8.61;100.00;101631.81;5025986;28;20434;-87
2023/09/15 05:33:57;;;;;;;7.82;4.55;;;;;;;8.66;100.00;101634.66;5027890;28;20442;-87
2023/09/15 05:36:30;;;;;;;8.75;4.60;;;;;;;8.70;100.00;101642.28;5026771;28;20429;-87
2023/09/15 05:38:59;;;;;;;9.00;4.78;;;;;;;8.73;100.00;101636.38;5030082;28;20415;-86
2023/09/15 05:41:27;;;;;;;9.93;5.45;;;;;;;8.83;100.00;101637.38;5027817;28;20426;-87
2023/09/15 05:43:55;;;;;;;9.65;4.75;;;;;;;8.83;100.00;101626.53;5025907;28;20827;-86
2023/09/15 05:46:28;;;;;;;9.32;4.80;;;;;;;8.95;100.00;101639.19;5029978;28;20875;-87
2023/09/15 05:49:03;;;;;;;12.07;5.03;;;;;;;8.94;100.00;101632.16;5025274;28;20434;-87
2023/09/15 05:51:31;;;;;;;8.95;4.90;;;;;;;9.02;100.00;101639.88;5027414;28;20430;-87
2023/09/15 05:54:00;;;;;;;8.45;4.90;;;;;;;9.06;100.00;101641.03;5029487;28;20415;-87
2023/09/15 05:56:29;;;;;;;8.93;4.90;;;;;;;9.09;100.00;101640.53;5029919;28;20418;-87
2023/09/15 05:59:03;;;;;;;13.40;5.45;;;;;;;9.16;100.00;101629.53;5027711;28;20900;-87
2023/09/15 06:01:37;;;;;;;9.77;5.00;;;;;;;9.19;100.00;101637.16;5031233;28;20419;-86
2023/09/15 06:04:07;;;;;;;9.07;5.55;;;;;;;9.25;100.00;101629.91;5029877;28;20823;-87
2023/09/15 06:06:40;;;;;;;9.23;5.33;;;;;;;9.32;100.00;101625.97;5030487;28;20434;-87
2023/09/15 06:09:09;;;;;;;10.52;5.35;;;;;;;9.35;100.00;101622.75;5046464;28;20430;-86
2023/09/15 06:11:37;;;;;;;10.52;5.13;;;;;;;9.43;100.00;101634.28;5030801;28;20458;-87
2023/09/15 06:14:10;;;;;;;12.65;5.45;;;;;;;9.45;100.00;101629.44;5030945;28;20442;-87
2023/09/15 06:16:43;;;;;;;9.95;5.50;;;;;;;9.47;100.00;101636.25;5045790;28;20442;-87
2023/09/15 06:19:13;;;;;;;10.88;5.68;;;;;;;9.56;100.00;101628.50;5045415;28;21394;-87
2023/09/15 06:21:46;;;;;;;9.60;5.50;;;;;;;9.62;100.00;101630.19;5026221;28;20431;-87
2023/09/15 06:24:14;;;;;;;12.33;5.63;;;;;;;9.67;100.00;101624.03;5027883;28;20425;-87
2023/09/15 06:26:42;;;;;;;11.57;5.75;;;;;;;9.70;100.00;101635.22;5031083;28;20430;-87
2023/09/15 06:29:15;;;;;;;10.95;5.53;;;;;;;9.76;100.00;101635.28;5043411;28;20431;-87
2023/09/15 06:31:49;;;;;;;10.80;5.20;;;;;;;9.79;100.00;101624.75;5029142;28;20430;-87
2023/09/15 06:34:18;;;;;;;10.15;5.90;;;;;;;9.85;100.00;101636.50;5030156;28;21243;-86
2023/09/15 06:36:46;;;;;;;9.10;5.70;;;;;;;9.88;100.00;101631.38;5045649;28;20438;-87
2023/09/15 06:39:23;;;;;;;8.48;5.05;;;;;;;9.97;100.00;101636.38;5029952;28;20429;-86
2023/09/15 06:41:51;;;;;;;11.15;5.43;;;;;;;10.14;100.00;101622.75;5025467;28;20423;-87
2023/09/15 06:44:24;;;;;;;9.88;5.30;;;;;;;10.09;100.00;101636.28;5029840;28;20427;-88
2023/09/15 06:46:55;;;;;;;13.43;5.20;;;;;;;10.10;100.00;101630.56;5030079;28;20511;-88
2023/09/15 06:49:25;;;;;;;9.52;5.13;;;;;;;10.23;100.00;101632.06;5027294;28;20438;-86
2023/09/15 06:51:53;;;;;;;9.15;4.68;;;;;;;10.25;100.00;101631.81;5029023;28;20442;-88
2023/09/15 06:54:22;;;;;;;9.88;5.38;;;;;;;10.26;100.00;101634.31;5031804;28;20454;-87
2023/09/15 06:56:55;;;;;;;8.10;4.85;;;;;;;10.36;100.00;101630.91;5026920;28;21138;-88
2023/09/15 06:59:23;;;;;;;8.82;4.88;;;;;;;10.38;100.00;101639.63;5042520;28;20431;-86
2023/09/15 07:01:53;;;;;;;9.65;5.15;;;;;;;10.42;100.00;101629.88;5022267;28;20450;-87
2023/09/15 07:04:22;;;;;;;9.75;5.50;;;;;;;10.48;100.00;101639.75;5023240;28;20913;-86
2023/09/15 07:06:56;;;;;;;8.65;5.22;;;;;;;10.52;100.00;101638.16;5039678;28;20435;-87
2023/09/15 07:09:29;;;;;;;10.00;5.20;;;;;;;10.61;100.00;101632.28;5028317;28;20431;-88
2023/09/15 07:12:04;;;;;;;10.30;5.22;;;;;;;10.68;100.00;101641.03;5029751;28;20446;-88
2023/09/15 07:14:32;;;;;;;9.50;5.20;;;;;;;10.68;100.00;101643.78;5024129;28;20433;-89
2023/09/15 07:17:01;;;;;;;9.98;5.22;;;;;;;10.79;100.00;101628.38;5026616;28;20423;-86
2023/09/15 07:19:34;;;;;;;10.32;5.60;;;;;;;10.81;100.00;101632.47;5027954;28;20442;-85
2023/09/15 07:22:08;;;;;;;9.75;4.95;;;;;;;10.88;100.00;101627.63;5028485;28;20422;-86
2023/09/15 07:24:40;;;;;;;9.57;5.10;;;;;;;10.95;100.00;101630.16;5029482;28;20862;-86
2023/09/15 07:27:09;;;;;;;8.95;5.30;;;;;;;11.00;100.00;101637.53;5029328;28;20439;-86
2023/09/15 07:29:38;;;;;;;9.90;4.90;;;;;;;11.01;100.00;101631.81;5042373;28;21050;-86
2023/09/15 07:32:12;;;;;;;9.57;5.00;;;;;;;11.09;100.00;101635.97;5026456;28;20919;-85
2023/09/15 07:34:40;;;;;;;12.75;5.25;;;;;;;11.17;100.00;101627.31;5025333;28;20430;-83
2023/09/15 07:37:10;;;;;;;8.80;4.90;;;;;;;11.26;100.00;101635.03;5024170;28;20427;-86
2023/09/15 07:39:43;;;;;;;8.95;4.80;;;;;;;11.30;100.00;101634.22;5024904;28;20438;-86
2023/09/15 07:42:11;;;;;;;8.77;4.85;;;;;;;11.38;100.00;101624.75;5042788;28;20466;-85
2023/09/15 07:44:45;;;;;;;8.43;4.65;;;;;;;11.47;100.00;101633.25;5023777;28;20430;-85
2023/09/15 07:47:14;;;;;;;9.68;4.72;;;;;;;11.53;100.00;101634.91;5027936;28;20438;-85
2023/09/15 07:49:42;;;;;;;8.38;4.40;;;;;;;11.58;100.00;101630.31;5027462;28;20953;-87
2023/09/15 07:52:12;;;;;;;10.18;4.82;;;;;;;11.63;100.00;101629.53;5025530;28;20439;-84
2023/09/15 07:54:45;;;;;;;8.88;4.60;;;;;;;11.70;100.00;101632.84;5023677;28;21042;-86
2023/09/15 07:57:14;;;;;;;8.43;4.68;;;;;;;11.80;100.00;101621.19;5041326;28;20803;-85
2023/09/15 07:59:42;;;;;;;11.05;4.57;;;;;;;11.89;100.00;101616.88;5022880;28;20431;-89
2023/09/15 08:02:15;;;;;;;7.00;4.47;;;;;;;11.98;100.00;101621.84;4989577;28;21131;-85
2023/09/15 08:04:48;;;;;;;8.07;4.03;;;;;;;12.05;100.00;101611.50;4992757;28;20431;-82
2023/09/15 08:07:23;;;;;;;7.32;3.95;;;;;;;12.13;100.00;101612.91;5004742;28;20446;-84
2023/09/15 08:09:56;;;;;;;8.65;4.00;;;;;;;12.30;100.00;101615.41;5011143;28;20434;-85
2023/09/15 08:12:30;;;;;;;9.17;3.97;;;;;;;12.35;100.00;101618.16;5001936;28;20431;-85
2023/09/15 08:14:58;;;;;;;7.75;3.75;;;;;;;12.34;100.00;101620.06;5003979;28;20530;-84
2023/09/15 08:17:32;;;;;;;11.15;4.00;;;;;;;12.42;100.00;101624.19;4999458;28;20431;-86
2023/09/15 08:20:02;;;;;;;10.43;4.32;;;;;;;12.51;100.00;101624.47;4998942;28;20427;-87
2023/09/15 08:22:38;;;;;;;6.78;3.65;;;;;;;12.78;100.00;101628.91;4999667;28;20419;-83
2023/09/15 08:25:11;;;;;;;7.40;3.30;;;;;;;13.20;100.00;101628.63;5005298;28;20462;-85
2023/09/15 08:27:46;;;;;;;6.40;3.42;;;;;;;13.03;100.00;101622.63;4997350;28;20442;-84
2023/09/15 08:30:22;;;;;;;6.13;3.25;;;;;;;13.29;100.00;101625.34;5016579;28;20446;-86
2023/09/15 08:32:50;;;;;;;16.00;9.52;;;;;;;13.55;100.00;101621.50;4993930;28;20505;-83
2023/09/15 08:35:24;;;;;;;6.90;3.22;;;;;;;13.51;100.00;101625.88;5008238;28;20428;-85
2023/09/15 08:37:58;;;;;;;7.75;3.20;;;;;;;13.29;100.00;101620.69;5005213;28;20443;-85
2023/09/15 08:40:37;;;;;;;6.40;3.10;;;;;;;13.40;100.00;101613.34;5000010;28;20442;-84
2023/09/15 08:43:06;;;;;;;6.30;3.20;;;;;;;13.48;100.00;101612.78;4999256;28;20439;-84
2023/09/15 08:45:35;;;;;;;7.82;3.22;;;;;;;13.56;100.00;101616.84;5018516;28;20462;-85
2023/09/15 08:48:10;;;;;;;8.70;3.10;;;;;;;13.58;100.00;101620.94;5005765;28;20446;-85
2023/09/15 08:50:44;;;;;;;5.78;3.00;;;;;;;13.65;100.00;101609.72;5002569;28;21214;-84
2023/09/15 08:53:14;;;;;;;9.05;2.80;;;;;;;13.72;100.00;101612.97;5001146;28;21285;-84
2023/09/15 08:55:47;;;;;;;6.35;2.80;;;;;;;14.26;100.00;101610.56;5003192;28;20438;-83
2023/09/15 08:58:21;;;;;;;7.45;2.80;;;;;;;13.99;100.00;101610.97;5009640;28;20439;-85
2023/09/15 09:00:50;;;;;;;6.65;2.80;;;;;;;13.97;100.00;101610.44;4996066;28;20419;-85
2023/09/15 09:03:23;;;;;;;8.18;3.05;;;;;;;14.05;100.00;101607.13;4999973;28;20473;-83
2023/09/15 09:05:58;;;;;;;6.93;2.90;;;;;;;13.99;100.00;101610.97;5001871;28;20427;-84
2023/09/15 09:08:33;;;;;;;9.30;3.00;;;;;;;14.11;100.00;101606.81;4999937;28;20446;-83
2023/09/15 09:11:01;;;;;;;6.07;2.50;;;;;;;14.18;100.00;101608.41;4993458;28;20923;-84
2023/09/15 09:13:36;;;;;;;6.83;2.50;;;;;;;14.19;100.00;101610.06;5001749;28;20458;-84
2023/09/15 09:16:10;;;;;;;7.25;2.60;;;;;;;14.21;100.00;101603.22;5011543;28;20427;-86
2023/09/15 09:18:55;;;;;;;7.30;2.80;;;;;;;14.36;100.00;101612.44;5002496;28;20462;-85
2023/09/15 09:21:30;;;;;;;6.50;2.83;;;;;;;14.45;100.00;101605.25;5005580;28;20441;-83
2023/09/15 09:24:06;;;;;;;6.40;2.90;;;;;;;14.62;100.00;101597.53;5004222;28;20439;-85
2023/09/15 09:26:34;;;;;;;7.10;2.97;;;;;;;14.67;100.00;101604.06;5006080;28;20427;-85
2023/09/15 09:29:03;;;;;;;8.65;2.67;;;;;;;14.90;100.00;101594.28;4996321;28;20443;-84
2023/09/15 09:31:39;;;;;;;9.50;2.95;;;;;;;14.79;100.00;101602.59;5006086;28;20442;-84
2023/09/15 09:34:18;;;;;;;7.20;2.60;;;;;;;14.81;100.00;101606.97;5007036;28;20423;-85
2023/09/15 09:36:48;;;;;;;8.20;2.67;;;;;;;15.15;100.00;101598.75;5008041;28;20435;-85
2023/09/15 09:39:18;;;;;;;5.70;2.72;;;;;;;14.95;100.00;101597.78;5010176;28;20445;-85
2023/09/15 09:41:52;;;;;;;6.13;2.88;;;;;;;14.98;100.00;101599.16;5024678;28;21779;-84
2023/09/15 09:44:25;;;;;;;6.57;2.70;;;;;;;15.07;100.00;101602.09;5007934;28;20427;-85
2023/09/15 09:46:54;;;;;;;9.47;2.50;;;;;;;15.12;100.00;101596.56;5012150;28;20436;-84
2023/09/15 09:49:22;;;;;;;6.85;2.90;;;;;;;15.24;100.00;101590.69;5005144;28;20430;-85
2023/09/15 09:51:51;;;;;;;6.53;2.63;;;;;;;15.25;100.00;101595.09;5004946;28;21227;-85
2023/09/15 09:54:28;;;;;;;5.18;2.40;;;;;;;15.37;100.00;101584.53;5000109;28;20430;-83
2023/09/15 09:56:56;;;;;;;7.18;2.50;;;;;;;15.46;100.00;101576.47;5001400;28;20423;-85
2023/09/15 09:59:28;;;;;;;6.40;2.60;;;;;;;15.50;100.00;101576.72;5005857;28;20446;-84
2023/09/15 10:01:58;;;;;;;6.00;2.33;;;;;;;15.49;100.00;101570.41;5002264;28;20434;-85
2023/09/15 10:04:26;;;;;;;6.57;2.47;;;;;;;16.11;100.00;101558.72;5001930;28;22380;-83
2023/09/15 10:06:55;;;;;;;11.60;3.40;;;;;;;15.90;100.00;101561.72;4992583;28;20434;-84
2023/09/15 10:09:30;;;;;;;6.38;2.78;;;;;;;15.67;100.00;101568.81;5002183;28;20415;-85
2023/09/15 10:11:59;;;;;;;6.18;2.70;;;;;;;15.69;100.00;101563.88;4990805;28;20446;-84
2023/09/15 10:14:32;;;;;;;7.85;2.80;;;;;;;15.75;100.00;101564.63;4990816;28;20439;-84
2023/09/15 10:17:06;;;;;;;6.18;2.75;;;;;;;15.90;100.00;101564.47;5017349;28;20454;-84
2023/09/15 10:19:34;;;;;;;5.25;2.38;;;;;;;16.30;100.00;101564.22;4996173;28;21132;-83
2023/09/15 10:22:08;;;;;;;5.73;2.50;;;;;;;16.08;100.00;101557.38;5000088;28;21604;-84
2023/09/15 10:24:43;;;;;;;7.60;2.47;;;;;;;16.24;100.00;101551.66;5007419;28;20431;-83
2023/09/15 10:27:12;;;;;;;6.83;2.70;;;;;;;16.17;100.00;101551.22;5006961;28;20438;-85
2023/09/15 10:29:46;;;;;;;5.72;2.72;;;;;;;16.01;100.00;101547.88;5001267;28;20438;-83
2023/09/15 10:32:19;;;;;;;7.68;2.80;;;;;;;15.99;100.00;101542.66;5003352;28;20431;-85
2023/09/15 10:34:53;;;;;;;5.78;2.70;;;;;;;16.10;100.00;101543.34;5000459;28;20435;-84
2023/09/15 10:37:21;;;;;;;6.28;2.75;;;;;;;16.06;100.00;101537.63;5001926;28;20431;-83
2023/09/15 10:40:00;;;;;;;5.57;2.55;;;;;;;16.15;100.00;101546.03;4998704;28;20775;-85
2023/09/15 10:42:34;;;;;;;7.05;2.78;;;;;;;16.24;100.00;101538.75;4995121;28;20443;-82
2023/09/15 10:45:11;;;;;;;7.35;2.85;;;;;;;16.42;100.00;101539.03;4998591;28;20477;-85
2023/09/15 10:47:55;;;;;;;8.20;2.85;;;;;;;16.35;100.00;101536.66;5008521;28;21320;-84
2023/09/15 10:50:33;;;;;;;6.72;3.17;;;;;;;16.32;100.00;101538.09;5004212;28;20441;-84
2023/09/15 10:53:09;;;;;;;14.63;7.05;;;;;;;16.69;100.00;101529.25;5004020;28;20431;-84
2023/09/15 10:55:40;;;;;;;7.22;2.78;;;;;;;16.69;100.00;101524.56;5003064;28;20521;-85
2023/09/15 10:58:10;;;;;;;8.65;2.90;;;;;;;16.80;100.00;101517.78;5016226;28;20443;-85
2023/09/15 11:00:43;;;;;;;6.95;2.75;;;;;;;16.72;100.00;101520.41;5000509;28;20449;-86
2023/09/15 11:03:12;;;;;;;7.97;2.80;;;;;;;16.64;100.00;101513.66;4996269;28;21072;-84
2023/09/15 11:05:45;;;;;;;6.60;2.70;;;;;;;16.70;100.00;101514.41;4985208;28;20415;-83
2023/09/15 11:08:15;;;;;;;6.70;2.85;;;;;;;16.86;100.00;101513.00;4994192;28;20438;-84
2023/09/15 11:10:44;;;;;;;6.95;2.75;;;;;;;16.85;100.00;101511.41;5000282;28;20434;-84
2023/09/15 11:13:18;;;;;;;7.78;2.75;;;;;;;16.98;100.00;101515.31;4989932;28;20427;-83
2023/09/15 11:15:46;;;;;;;7.10;2.80;;;;;;;16.85;100.00;101505.91;5000331;28;20438;-85
2023/09/15 11:18:14;;;;;;;7.70;3.13;;;;;;;16.89;100.00;101511.63;4997872;28;20435;-85
2023/09/15 11:20:48;;;;;;;5.43;2.60;;;;;;;16.88;100.00;101510.78;5003338;28;20431;-85
2023/09/15 11:23:24;;;;;;;7.82;2.60;;;;;;;16.88;100.00;101502.53;5002386;28;20446;-83
2023/09/15 11:26:03;;;;;;;6.88;2.80;;;;;;;17.22;100.00;101500.56;5020439;28;20434;-83
2023/09/15 11:28:37;;;;;;;6.78;2.70;;;;;;;16.94;100.00;101497.78;4996029;28;20974;-84
2023/09/15 11:31:11;;;;;;;6.28;2.80;;;;;;;16.85;100.00;101503.16;5022948;28;20457;-84
2023/09/15 11:33:46;;;;;;;6.45;2.55;;;;;;;17.09;100.00;101500.25;5004783;28;20430;-84
2023/09/15 11:36:14;;;;;;;6.47;2.63;;;;;;;17.23;100.00;101493.94;5004561;28;20431;-85
2023/09/15 11:38:47;;;;;;;8.35;2.75;;;;;;;17.04;100.00;101497.63;4998446;28;20434;-83
2023/09/15 11:41:19;;;;;;;8.50;3.10;;;;;;;17.02;100.00;101497.09;4996217;28;20426;-84
2023/09/15 11:43:47;;;;;;;6.68;2.90;;;;;;;17.19;100.00;101488.22;4995253;28;20427;-83